createdAt,value
2023-02-17T00:01:15.131Z,18.78
2023-02-17T00:03:41.552Z,18.74
2023-02-17T00:06:07.993Z,18.74
2023-02-17T00:08:34.582Z,18.73
2023-02-17T00:11:01.210Z,18.66
2023-02-17T00:13:27.850Z,18.64
2023-02-17T00:15:54.270Z,18.66
2023-02-17T00:18:20.774Z,18.64
2023-02-17T00:20:47.225Z,18.61
2023-02-17T00:23:13.753Z,18.59
2023-02-17T00:25:40.124Z,18.53
2023-02-17T00:28:07.069Z,18.53
2023-02-17T00:30:33.381Z,18.52
2023-02-17T00:32:59.871Z,18.50
2023-02-17T00:35:26.211Z,18.48
2023-02-17T00:37:52.615Z,18.43
2023-02-17T00:40:18.910Z,18.41
2023-02-17T00:42:45.274Z,18.39
2023-02-17T00:45:11.657Z,18.33
2023-02-17T00:47:38.244Z,18.34
2023-02-17T00:50:05.207Z,18.31
2023-02-17T00:52:31.587Z,18.31
2023-02-17T00:54:58.187Z,18.28
2023-02-17T00:57:25.005Z,18.28
2023-02-17T00:59:51.479Z,18.24
2023-02-17T01:02:18.238Z,18.20
2023-02-17T01:04:44.665Z,18.19
2023-02-17T01:07:11.373Z,18.18
2023-02-17T01:09:37.745Z,18.18
2023-02-17T01:12:04.081Z,18.13
2023-02-17T01:14:30.988Z,18.11
2023-02-17T01:16:57.402Z,18.12
2023-02-17T01:19:23.792Z,18.10
2023-02-17T01:21:50.261Z,18.05
2023-02-17T01:24:16.552Z,18.04
2023-02-17T01:26:43.224Z,18.03
2023-02-17T01:29:09.885Z,17.98
2023-02-17T01:31:36.416Z,17.95
2023-02-17T01:34:02.890Z,17.94
2023-02-17T01:36:29.209Z,17.93
2023-02-17T01:38:55.647Z,17.92
2023-02-17T01:41:21.964Z,17.90
2023-02-17T01:43:48.294Z,17.90
2023-02-17T01:46:15.201Z,17.87
2023-02-17T01:48:41.570Z,17.86
2023-02-17T01:51:08.046Z,17.82
2023-02-17T01:53:34.393Z,17.84
2023-02-17T01:56:01.014Z,17.80
2023-02-17T01:58:27.358Z,17.79
2023-02-17T02:00:53.776Z,17.78
2023-02-17T02:03:20.265Z,17.79
2023-02-17T02:05:47.738Z,17.77
2023-02-17T02:08:14.093Z,17.75
2023-02-17T02:10:42.103Z,17.71
2023-02-17T02:13:09.325Z,17.71
2023-02-17T02:15:36.121Z,17.69
2023-02-17T02:18:02.574Z,17.68
2023-02-17T02:20:29.111Z,17.64
2023-02-17T02:22:55.411Z,17.64
2023-02-17T02:25:21.768Z,17.63
2023-02-17T02:27:48.280Z,17.63
2023-02-17T02:30:14.870Z,17.61
2023-02-17T02:32:41.277Z,17.55
2023-02-17T02:35:07.693Z,17.59
2023-02-17T02:37:34.258Z,17.55
2023-02-17T02:40:00.617Z,17.57
2023-02-17T02:42:27.354Z,17.53
2023-02-17T02:44:53.757Z,17.52
2023-02-17T02:47:20.222Z,17.50
2023-02-17T02:49:46.577Z,17.48
2023-02-17T02:52:12.965Z,17.45
2023-02-17T02:54:39.352Z,17.47
2023-02-17T02:57:05.846Z,17.47
2023-02-17T02:59:32.542Z,17.41
2023-02-17T03:01:59.208Z,17.41
2023-02-17T03:04:25.586Z,17.43
2023-02-17T03:06:51.970Z,17.37
2023-02-17T03:09:18.330Z,17.38
2023-02-17T03:11:44.693Z,17.37
2023-02-17T03:14:11.042Z,17.33
2023-02-17T03:16:37.536Z,17.32
2023-02-17T03:19:04.059Z,17.33
2023-02-17T03:21:30.921Z,17.33
2023-02-17T03:23:57.261Z,17.32
2023-02-17T03:26:24.121Z,17.30
2023-02-17T03:28:51.497Z,17.29
2023-02-17T03:31:17.822Z,17.29
2023-02-17T03:33:44.272Z,17.29
2023-02-17T03:36:10.811Z,17.27
2023-02-17T03:38:37.275Z,17.22
2023-02-17T03:41:03.668Z,17.25
2023-02-17T03:43:30.117Z,17.22
2023-02-17T03:45:56.544Z,17.22
2023-02-17T03:48:23.484Z,17.19
2023-02-17T03:50:49.920Z,17.18
2023-02-17T03:53:16.252Z,17.15
2023-02-17T03:55:43.168Z,17.11
2023-02-17T03:58:09.839Z,17.14
2023-02-17T04:00:36.224Z,17.11
2023-02-17T04:03:02.589Z,17.11
2023-02-17T04:05:29.398Z,17.10
2023-02-17T04:07:55.748Z,17.10
2023-02-17T04:10:22.380Z,17.07
2023-02-17T04:12:49.108Z,17.08
2023-02-17T04:15:15.483Z,17.05
2023-02-17T04:17:41.994Z,17.06
2023-02-17T04:20:08.299Z,17.01
2023-02-17T04:22:34.664Z,17.00
2023-02-17T04:25:01.211Z,17.02
2023-02-17T04:27:27.927Z,16.99
2023-02-17T04:29:54.417Z,16.99
2023-02-17T04:32:21.084Z,16.96
2023-02-17T04:34:47.643Z,17.00
2023-02-17T04:37:14.118Z,16.97
2023-02-17T04:39:40.544Z,16.97
2023-02-17T04:42:07.380Z,16.94
2023-02-17T04:44:33.731Z,16.97
2023-02-17T04:47:00.129Z,16.94
2023-02-17T04:49:26.492Z,16.94
2023-02-17T04:51:53.087Z,16.93
2023-02-17T04:54:19.497Z,16.90
2023-02-17T04:56:45.976Z,16.89
2023-02-17T04:59:12.259Z,16.89
2023-02-17T05:01:39.176Z,16.86
2023-02-17T05:04:06.380Z,16.87
2023-02-17T05:06:32.711Z,16.89
2023-02-17T05:08:59.097Z,16.85
2023-02-17T05:11:25.388Z,16.83
2023-02-17T05:13:51.815Z,16.81
2023-02-17T05:16:18.231Z,16.85
2023-02-17T05:18:45.036Z,16.82
2023-02-17T05:21:11.828Z,16.81
2023-02-17T05:23:38.527Z,16.78
2023-02-17T05:26:05.396Z,16.79
2023-02-17T05:28:31.866Z,16.77
2023-02-17T05:30:58.382Z,16.78
2023-02-17T05:33:25.001Z,16.77
2023-02-17T05:35:51.409Z,16.73
2023-02-17T05:38:17.779Z,16.68
2023-02-17T05:40:44.225Z,16.71
2023-02-17T05:43:11.076Z,16.71
2023-02-17T05:45:37.631Z,16.69
2023-02-17T05:48:04.005Z,16.70
2023-02-17T05:50:30.399Z,16.69
2023-02-17T05:52:56.671Z,16.68
2023-02-17T05:55:23.000Z,16.65
2023-02-17T05:57:49.566Z,16.64
2023-02-17T06:00:16.030Z,16.64
2023-02-17T06:02:42.335Z,16.65
2023-02-17T06:05:08.931Z,16.62
2023-02-17T06:07:35.412Z,16.61
2023-02-17T06:10:01.780Z,16.58
2023-02-17T06:12:28.093Z,16.59
2023-02-17T06:14:54.514Z,16.58
2023-02-17T06:17:20.864Z,16.55
2023-02-17T06:19:47.191Z,16.55
2023-02-17T06:22:13.526Z,16.56
2023-02-17T06:24:39.963Z,16.54
2023-02-17T06:27:06.466Z,16.54
2023-02-17T06:29:33.197Z,16.52
2023-02-17T06:31:59.654Z,16.51
2023-02-17T06:34:26.260Z,16.49
2023-02-17T06:36:52.682Z,16.50
2023-02-17T06:39:19.633Z,16.48
2023-02-17T06:41:45.983Z,16.50
2023-02-17T06:44:12.297Z,16.48
2023-02-17T06:46:38.866Z,16.47
2023-02-17T06:49:05.484Z,16.46
2023-02-17T06:51:31.838Z,16.45
2023-02-17T06:53:58.698Z,16.30
2023-02-17T06:56:25.049Z,16.32
2023-02-17T06:58:51.426Z,16.32
2023-02-17T07:01:17.800Z,16.32
2023-02-17T07:03:44.485Z,16.32
2023-02-17T07:06:11.507Z,16.35
2023-02-17T07:08:37.873Z,16.36
2023-02-17T07:11:04.265Z,16.34
2023-02-17T07:13:30.891Z,16.32
2023-02-17T07:15:57.214Z,16.33
2023-02-17T07:18:23.618Z,16.35
2023-02-17T07:20:50.055Z,16.32
2023-02-17T07:23:16.434Z,16.33
2023-02-17T07:25:42.786Z,16.30
2023-02-17T07:28:09.528Z,16.28
2023-02-17T07:30:36.166Z,16.28
2023-02-17T07:33:02.541Z,16.30
2023-02-17T07:35:29.200Z,16.30
2023-02-17T07:37:55.803Z,16.28
2023-02-17T07:40:22.201Z,16.27
2023-02-17T07:42:48.707Z,16.26
2023-02-17T07:45:15.080Z,16.27
2023-02-17T07:47:41.729Z,16.25
2023-02-17T07:50:08.432Z,16.23
2023-02-17T07:52:35.172Z,16.24
2023-02-17T07:55:01.528Z,16.24
2023-02-17T07:57:28.009Z,16.22
2023-02-17T07:59:54.675Z,16.23
2023-02-17T08:02:21.054Z,16.19
2023-02-17T08:04:47.427Z,16.20
2023-02-17T08:07:13.829Z,16.19
2023-02-17T08:09:40.786Z,16.20
2023-02-17T08:12:07.254Z,16.20
2023-02-17T08:14:33.701Z,16.18
2023-02-17T08:17:00.715Z,16.10
2023-02-17T08:19:33.808Z,16.03
2023-02-17T08:22:09.709Z,15.99
2023-02-17T08:24:36.159Z,16.03
2023-02-17T08:27:02.608Z,16.04
2023-02-17T08:29:29.109Z,16.04
2023-02-17T08:31:55.660Z,16.05
2023-02-17T08:34:22.118Z,16.04
2023-02-17T08:36:48.485Z,16.06
2023-02-17T08:39:14.742Z,16.06
2023-02-17T08:41:41.233Z,16.04
2023-02-17T08:44:07.647Z,16.05
2023-02-17T08:46:34.181Z,16.06
2023-02-17T08:49:00.621Z,16.02
2023-02-17T08:51:27.158Z,16.03
2023-02-17T08:53:53.621Z,16.03
2023-02-17T08:56:19.929Z,16.01
2023-02-17T08:58:46.787Z,16.00
2023-02-17T09:01:13.476Z,16.00
2023-02-17T09:03:40.143Z,16.00
2023-02-17T09:06:06.949Z,15.99
2023-02-17T09:08:33.552Z,15.98
2023-02-17T09:10:59.888Z,16.00
2023-02-17T09:13:26.350Z,15.98
2023-02-17T09:15:52.729Z,15.95
2023-02-17T09:18:19.214Z,15.97
2023-02-17T09:20:45.599Z,15.97
2023-02-17T09:23:12.462Z,15.98
2023-02-17T09:25:38.966Z,15.95
2023-02-17T09:28:05.695Z,15.96
2023-02-17T09:30:32.157Z,15.95
2023-02-17T09:32:58.636Z,15.94
2023-02-17T09:35:24.968Z,15.93
2023-02-17T09:37:51.294Z,15.92
2023-02-17T09:40:17.904Z,15.94
2023-02-17T09:42:45.022Z,15.91
2023-02-17T09:45:12.901Z,15.91
2023-02-17T09:47:39.406Z,15.91
2023-02-17T09:50:06.189Z,15.91
2023-02-17T09:52:32.511Z,15.88
2023-02-17T09:54:59.027Z,15.88
2023-02-17T09:57:25.673Z,15.85
2023-02-17T09:59:52.798Z,15.85
2023-02-17T10:02:19.254Z,15.92
2023-02-17T10:04:45.871Z,15.87
2023-02-17T10:07:12.216Z,15.90
2023-02-17T10:09:39.155Z,15.91
2023-02-17T10:12:05.584Z,15.91
2023-02-17T10:14:31.948Z,15.94
2023-02-17T10:16:58.324Z,15.97
2023-02-17T10:19:25.328Z,16.05
2023-02-17T10:21:51.669Z,16.00
2023-02-17T10:24:18.310Z,16.01
2023-02-17T10:26:45.372Z,16.05
2023-02-17T10:29:12.263Z,16.07
2023-02-17T10:31:39.590Z,16.08
2023-02-17T10:34:06.674Z,16.08
2023-02-17T10:36:33.279Z,16.09
2023-02-17T10:38:59.553Z,16.10
2023-02-17T10:41:26.274Z,16.10
2023-02-17T10:43:52.810Z,16.13
2023-02-17T10:46:19.171Z,16.12
2023-02-17T10:48:45.475Z,16.12
2023-02-17T10:51:11.814Z,16.11
2023-02-17T10:53:38.160Z,16.12
2023-02-17T10:56:04.973Z,16.13
2023-02-17T10:58:32.133Z,16.09
2023-02-17T11:00:58.576Z,16.08
2023-02-17T11:03:24.986Z,16.08
2023-02-17T11:05:51.547Z,16.08
2023-02-17T11:08:18.270Z,16.08
2023-02-17T11:10:44.646Z,16.06
2023-02-17T11:13:11.342Z,16.05
2023-02-17T11:15:38.258Z,16.05
2023-02-17T11:18:04.606Z,16.03
2023-02-17T11:20:31.081Z,16.02
2023-02-17T11:22:57.654Z,16.01
2023-02-17T11:25:23.973Z,16.01
2023-02-17T11:27:50.334Z,16.00
2023-02-17T11:30:16.657Z,15.98
2023-02-17T11:32:43.655Z,15.96
2023-02-17T11:35:10.484Z,15.96
2023-02-17T11:37:37.481Z,15.93
2023-02-17T11:40:03.767Z,15.95
2023-02-17T11:42:30.172Z,15.93
2023-02-17T11:44:56.550Z,15.92
2023-02-17T11:47:23.614Z,15.91
2023-02-17T11:49:50.083Z,15.90
2023-02-17T11:52:16.490Z,15.91
2023-02-17T11:54:43.581Z,15.86
2023-02-17T11:57:11.084Z,15.82
2023-02-17T11:59:37.507Z,15.75
2023-02-17T12:02:04.089Z,15.73
2023-02-17T12:04:30.737Z,15.77
2023-02-17T12:06:57.046Z,15.76
2023-02-17T12:09:23.361Z,15.78
2023-02-17T12:11:49.748Z,15.79
2023-02-17T12:14:16.088Z,15.77
2023-02-17T12:16:42.973Z,15.77
2023-02-17T12:19:09.569Z,15.76
2023-02-17T12:21:35.920Z,15.77
2023-02-17T12:24:02.290Z,15.75
2023-02-17T12:26:28.992Z,15.76
2023-02-17T12:28:55.395Z,15.75
2023-02-17T12:31:21.840Z,15.76
2023-02-17T12:33:48.606Z,15.76
2023-02-17T12:36:15.179Z,15.76
2023-02-17T12:38:42.103Z,15.74
2023-02-17T12:41:08.967Z,15.75
2023-02-17T12:43:35.632Z,15.78
2023-02-17T12:46:01.978Z,15.76
2023-02-17T12:48:28.330Z,15.75
2023-02-17T12:50:55.145Z,15.75
2023-02-17T12:53:21.989Z,15.73
2023-02-17T12:55:49.013Z,15.74
2023-02-17T12:58:15.927Z,15.74
2023-02-17T13:00:42.519Z,15.73
2023-02-17T13:03:08.893Z,15.74
2023-02-17T13:05:35.264Z,15.73
2023-02-17T13:08:01.711Z,15.74
2023-02-17T13:10:28.718Z,15.72
2023-02-17T13:12:55.126Z,15.72
2023-02-17T13:15:21.503Z,15.73
2023-02-17T13:17:47.980Z,15.74
2023-02-17T13:20:14.535Z,15.74
2023-02-17T13:22:40.917Z,15.72
2023-02-17T13:25:07.851Z,15.71
2023-02-17T13:27:34.388Z,15.72
2023-02-17T13:30:00.964Z,15.71
2023-02-17T13:32:27.652Z,15.71
2023-02-17T13:34:54.701Z,15.71
2023-02-17T13:37:21.112Z,15.69
2023-02-17T13:39:48.149Z,15.68
2023-02-17T13:42:14.516Z,15.69
2023-02-17T13:44:40.946Z,15.69
2023-02-17T13:47:07.370Z,15.70
2023-02-17T13:49:33.730Z,15.69
2023-02-17T13:52:00.335Z,15.68
2023-02-17T13:54:26.714Z,15.69
2023-02-17T13:56:52.990Z,15.68
2023-02-17T13:59:19.289Z,15.70
2023-02-17T14:01:46.300Z,15.69
2023-02-17T14:04:13.005Z,15.68
2023-02-17T14:06:39.590Z,15.69
2023-02-17T14:09:06.291Z,15.70
2023-02-17T14:11:33.214Z,15.69
2023-02-17T14:13:59.532Z,15.69
2023-02-17T14:16:26.139Z,15.68
2023-02-17T14:18:52.590Z,15.70
2023-02-17T14:21:19.070Z,15.70
2023-02-17T14:23:45.552Z,15.70
2023-02-17T14:26:11.993Z,15.70
2023-02-17T14:28:39.030Z,15.72
2023-02-17T14:31:05.707Z,15.71
2023-02-17T14:33:32.585Z,15.70
2023-02-17T14:35:59.019Z,15.71
2023-02-17T14:38:25.637Z,15.71
2023-02-17T14:40:52.114Z,15.73
2023-02-17T14:43:18.566Z,15.73
2023-02-17T14:45:45.275Z,15.75
2023-02-17T14:48:11.750Z,15.76
2023-02-17T14:50:38.262Z,15.75
2023-02-17T14:53:05.141Z,15.75
2023-02-17T14:55:31.520Z,15.74
2023-02-17T14:57:57.886Z,15.75
2023-02-17T15:00:25.295Z,15.74
2023-02-17T15:02:53.190Z,15.74
2023-02-17T15:05:19.786Z,15.72
2023-02-17T15:07:46.136Z,15.73
2023-02-17T15:10:12.479Z,15.72
2023-02-17T15:12:40.285Z,15.69
2023-02-17T15:15:06.673Z,15.71
2023-02-17T15:17:33.041Z,15.69
2023-02-17T15:19:59.435Z,15.68
2023-02-17T15:22:25.761Z,15.68
2023-02-17T15:24:52.131Z,15.67
2023-02-17T15:27:18.914Z,15.66
2023-02-17T15:29:45.276Z,15.64
2023-02-17T15:32:11.741Z,15.63
2023-02-17T15:34:38.173Z,15.64
2023-02-17T15:37:04.582Z,15.62
2023-02-17T15:39:31.015Z,15.62
2023-02-17T15:41:57.673Z,15.62
2023-02-17T15:44:24.637Z,15.62
2023-02-17T15:46:51.635Z,15.62
2023-02-17T15:49:18.061Z,15.59
2023-02-17T15:51:45.096Z,15.60
2023-02-17T15:54:11.837Z,15.60
2023-02-17T15:56:38.697Z,15.57
2023-02-17T15:59:05.207Z,15.58
2023-02-17T16:01:31.794Z,15.54
2023-02-17T16:03:58.147Z,15.53
2023-02-17T16:06:24.479Z,15.54
2023-02-17T16:08:50.837Z,15.55
2023-02-17T16:11:17.121Z,15.52
2023-02-17T16:13:43.600Z,15.49
2023-02-17T16:16:10.225Z,15.51
2023-02-17T16:18:36.558Z,15.50
2023-02-17T16:21:02.836Z,15.49
2023-02-17T16:23:29.444Z,15.48
2023-02-17T16:25:55.778Z,15.44
2023-02-17T16:28:22.152Z,15.46
2023-02-17T16:30:48.582Z,15.45
2023-02-17T16:33:15.110Z,15.44
2023-02-17T16:35:41.574Z,15.42
2023-02-17T16:38:08.465Z,15.41
2023-02-17T16:40:34.742Z,15.41
2023-02-17T16:43:01.323Z,15.42
2023-02-17T16:45:28.126Z,15.42
2023-02-17T16:47:54.468Z,15.40
2023-02-17T16:50:20.814Z,15.39
2023-02-17T16:52:47.157Z,15.37
2023-02-17T16:55:13.558Z,15.37
2023-02-17T16:57:40.061Z,15.38
2023-02-17T17:00:06.757Z,15.35
2023-02-17T17:02:33.230Z,15.36
2023-02-17T17:04:59.683Z,15.37
2023-02-17T17:07:26.230Z,15.37
2023-02-17T17:10:14.635Z,15.36
2023-02-17T17:12:39.435Z,15.35
2023-02-17T17:15:05.791Z,15.37
2023-02-17T17:17:32.149Z,15.34
2023-02-17T17:19:58.802Z,15.35
2023-02-17T17:22:25.163Z,15.36
2023-02-17T17:24:51.553Z,15.34
2023-02-17T17:27:17.950Z,15.33
2023-02-17T17:29:44.954Z,15.34
2023-02-17T17:32:11.838Z,15.34
2023-02-17T17:34:38.298Z,15.33
2023-02-17T17:37:05.145Z,15.32
2023-02-17T17:39:31.874Z,15.32
2023-02-17T17:41:58.266Z,15.31
2023-02-17T17:44:24.688Z,15.32
2023-02-17T17:46:51.045Z,15.30
2023-02-17T17:49:17.392Z,15.31
2023-02-17T17:51:43.796Z,15.29
2023-02-17T17:54:10.358Z,15.29
2023-02-17T17:56:36.702Z,15.30
2023-02-17T17:59:03.059Z,15.27
2023-02-17T18:01:29.517Z,15.29
2023-02-17T18:03:56.067Z,15.31
2023-02-17T18:06:22.866Z,15.29
2023-02-17T18:08:49.563Z,15.27
2023-02-17T18:11:16.292Z,15.27
2023-02-17T18:13:42.684Z,15.27
2023-02-17T18:16:09.917Z,15.28
2023-02-17T18:18:36.542Z,15.27
2023-02-17T18:21:03.114Z,15.27
2023-02-17T18:23:29.760Z,15.26
2023-02-17T18:25:56.082Z,15.27
2023-02-17T18:28:22.465Z,15.25
2023-02-17T18:30:48.892Z,15.25
2023-02-17T18:33:15.218Z,15.25
2023-02-17T18:35:41.784Z,15.26
2023-02-17T18:38:08.156Z,15.26
2023-02-17T18:40:34.501Z,15.24
2023-02-17T18:43:01.516Z,15.25
2023-02-17T18:45:27.917Z,15.26
2023-02-17T18:47:54.236Z,15.24
2023-02-17T18:50:21.594Z,15.25
2023-02-17T18:52:48.012Z,15.25
2023-02-17T18:55:14.372Z,15.24
2023-02-17T18:57:41.299Z,15.24
2023-02-17T19:00:07.629Z,15.23
2023-02-17T19:02:34.080Z,15.22
2023-02-17T19:05:00.526Z,15.25
2023-02-17T19:07:27.354Z,15.25
2023-02-17T19:09:53.773Z,15.24
2023-02-17T19:12:20.134Z,15.22
2023-02-17T19:14:47.044Z,15.21
2023-02-17T19:17:13.800Z,15.22
2023-02-17T19:19:40.344Z,15.21
2023-02-17T19:22:06.751Z,15.19
2023-02-17T19:24:33.066Z,15.22
2023-02-17T19:26:59.377Z,15.20
2023-02-17T19:29:25.810Z,15.21
2023-02-17T19:31:52.274Z,15.22
2023-02-17T19:34:18.695Z,15.19
2023-02-17T19:36:45.018Z,15.23
2023-02-17T19:39:11.373Z,15.19
2023-02-17T19:41:37.737Z,15.21
2023-02-17T19:44:04.461Z,15.23
2023-02-17T19:46:31.201Z,15.22
2023-02-17T19:48:57.896Z,15.22
2023-02-17T19:51:24.328Z,15.21
2023-02-17T19:53:50.648Z,15.21
2023-02-17T19:56:17.006Z,15.19
2023-02-17T19:58:43.409Z,15.19
2023-02-17T20:01:09.848Z,15.20
2023-02-17T20:03:36.294Z,15.20
2023-02-17T20:06:02.647Z,15.20
2023-02-17T20:08:28.977Z,15.20
2023-02-17T20:10:55.321Z,15.19
2023-02-17T20:13:21.632Z,15.20
2023-02-17T20:15:48.654Z,15.17
2023-02-17T20:18:14.990Z,15.17
2023-02-17T20:20:41.479Z,15.18
2023-02-17T20:23:07.876Z,15.19
2023-02-17T20:25:34.781Z,15.17
2023-02-17T20:28:01.417Z,15.15
2023-02-17T20:30:27.854Z,15.15
2023-02-17T20:32:54.642Z,15.16
2023-02-17T20:35:21.701Z,15.16
2023-02-17T20:37:48.150Z,15.16
2023-02-17T20:40:15.144Z,15.17
2023-02-17T20:42:41.580Z,15.18
2023-02-17T20:45:08.143Z,15.18
2023-02-17T20:47:34.570Z,15.16
2023-02-17T20:50:01.273Z,15.15
2023-02-17T20:52:27.938Z,15.15
2023-02-17T20:54:54.384Z,15.14
2023-02-17T20:57:20.780Z,15.16
2023-02-17T20:59:47.181Z,15.13
2023-02-17T21:02:13.769Z,15.12
2023-02-17T21:04:40.179Z,15.13
2023-02-17T21:07:07.118Z,15.13
2023-02-17T21:09:33.544Z,15.14
2023-02-17T21:11:59.961Z,15.14
2023-02-17T21:14:26.433Z,15.13
2023-02-17T21:16:53.543Z,15.14
2023-02-17T21:19:20.020Z,15.14
2023-02-17T21:21:46.726Z,15.14
2023-02-17T21:24:13.073Z,15.12
2023-02-17T21:26:39.854Z,15.12
2023-02-17T21:29:06.238Z,15.13
2023-02-17T21:31:32.677Z,15.12
2023-02-17T21:33:59.452Z,15.12
2023-02-17T21:36:27.462Z,15.10
2023-02-17T21:38:55.421Z,15.09
2023-02-17T21:41:21.807Z,15.10
2023-02-17T21:43:48.182Z,15.10
2023-02-17T21:46:14.567Z,15.09
2023-02-17T21:48:40.986Z,15.10
2023-02-17T21:51:07.348Z,15.08
2023-02-17T21:53:34.197Z,15.07
2023-02-17T21:56:00.972Z,15.09
2023-02-17T21:58:27.355Z,15.07
2023-02-17T22:00:53.711Z,15.07
2023-02-17T22:03:20.292Z,15.08
2023-02-17T22:05:46.938Z,15.07
2023-02-17T22:08:14.128Z,15.06
2023-02-17T22:10:40.963Z,15.07
2023-02-17T22:13:07.599Z,15.06
2023-02-17T22:15:34.112Z,15.05
2023-02-17T22:18:00.605Z,15.06
2023-02-17T22:20:26.966Z,15.06
2023-02-17T22:22:53.328Z,15.05
2023-02-17T22:25:19.982Z,15.03
2023-02-17T22:27:46.547Z,15.02
2023-02-17T22:30:13.095Z,15.02
2023-02-17T22:32:39.507Z,15.03
2023-02-17T22:35:05.883Z,15.03
2023-02-17T22:37:32.185Z,15.03
2023-02-17T22:39:58.466Z,15.03
2023-02-17T22:42:25.073Z,15.01
2023-02-17T22:44:51.445Z,15.00
2023-02-17T22:47:17.805Z,15.00
2023-02-17T22:49:44.221Z,15.00
2023-02-17T22:52:10.634Z,14.99
2023-02-17T22:54:37.207Z,15.00
2023-02-17T22:57:03.575Z,14.99
2023-02-17T22:59:30.213Z,15.00
2023-02-17T23:01:57.085Z,15.00
2023-02-17T23:04:23.546Z,14.99
2023-02-17T23:06:50.009Z,15.00
2023-02-17T23:09:16.410Z,14.99
2023-02-17T23:11:42.767Z,14.99
2023-02-17T23:14:09.147Z,14.97
2023-02-17T23:16:35.773Z,14.96
2023-02-17T23:19:02.144Z,14.96
2023-02-17T23:21:28.598Z,14.97
2023-02-17T23:23:54.937Z,14.95
2023-02-17T23:26:21.253Z,14.96
2023-02-17T23:28:47.617Z,14.97
2023-02-17T23:31:14.174Z,14.96
2023-02-17T23:33:40.603Z,14.94
2023-02-17T23:36:07.383Z,14.94
2023-02-17T23:38:34.092Z,14.94
2023-02-17T23:41:00.374Z,14.94
2023-02-17T23:43:27.572Z,14.94
2023-02-17T23:45:54.042Z,14.94
2023-02-17T23:48:20.461Z,14.95
2023-02-17T23:50:46.907Z,14.94
2023-02-17T23:53:13.224Z,14.94
2023-02-17T23:55:39.731Z,14.94
2023-02-17T23:58:06.043Z,14.93
